createdAt,value
2022-11-01T00:03:20.066Z,18.20
2022-11-01T00:08:22.428Z,18.20
2022-11-01T00:13:24.670Z,18.00
2022-11-01T00:18:27.351Z,17.90
2022-11-01T00:23:29.677Z,17.90
2022-11-01T00:28:32.817Z,17.90
2022-11-01T00:33:36.511Z,18.00
2022-11-01T00:38:39.008Z,18.10
2022-11-01T00:43:41.263Z,18.10
2022-11-01T00:48:43.579Z,17.30
2022-11-01T00:53:45.868Z,18.10
2022-11-01T00:58:48.083Z,18.10
2022-11-01T01:03:50.354Z,18.10
2022-11-01T01:08:52.732Z,18.20
2022-11-01T01:13:54.981Z,18.20
2022-11-01T01:18:58.525Z,18.10
2022-11-01T01:24:00.989Z,18.10
2022-11-01T01:29:03.547Z,17.90
2022-11-01T01:34:05.868Z,18.00
2022-11-01T01:39:08.837Z,17.90
2022-11-01T01:44:42.165Z,18.00
2022-11-01T01:49:46.097Z,17.90
2022-11-01T01:54:50.945Z,17.90
2022-11-01T01:59:53.599Z,17.90
2022-11-01T02:05:07.355Z,17.90
2022-11-01T02:10:10.846Z,17.80
2022-11-01T02:15:14.132Z,17.80
2022-11-01T02:20:35.464Z,17.80
2022-11-01T02:25:53.396Z,17.70
2022-11-01T02:31:14.353Z,17.80
2022-11-01T02:36:52.402Z,17.80
2022-11-01T02:42:11.517Z,17.90
2022-11-01T02:47:14.063Z,17.80
2022-11-01T02:52:20.373Z,17.60
2022-11-01T02:57:40.844Z,17.60
2022-11-01T03:02:44.867Z,17.70
2022-11-01T03:07:51.641Z,17.70
2022-11-01T03:13:32.315Z,17.60
2022-11-01T03:18:46.064Z,17.60
2022-11-01T03:24:00.753Z,17.70
2022-11-01T03:29:07.732Z,17.80
2022-11-01T03:34:16.241Z,17.70
2022-11-01T03:39:24.328Z,17.80
2022-11-01T03:44:28.692Z,18.00
2022-11-01T03:49:30.941Z,17.90
2022-11-01T03:54:33.359Z,18.10
2022-11-01T03:59:35.667Z,17.90
2022-11-01T04:04:37.900Z,17.80
2022-11-01T04:09:40.162Z,17.80
2022-11-01T04:15:00.834Z,17.90
2022-11-01T04:20:35.415Z,17.70
2022-11-01T04:25:37.771Z,17.80
2022-11-01T04:30:40.683Z,17.60
2022-11-01T04:35:43.300Z,17.50
2022-11-01T04:40:45.625Z,17.40
2022-11-01T04:45:54.602Z,17.50
2022-11-01T04:50:56.810Z,17.70
2022-11-01T04:55:59.152Z,17.50
2022-11-01T05:01:06.381Z,17.50
2022-11-01T05:06:08.813Z,17.60
2022-11-01T05:11:11.078Z,17.60
2022-11-01T05:16:19.372Z,17.20
2022-11-01T05:21:22.247Z,17.20
2022-11-01T05:26:24.688Z,17.20
2022-11-01T05:31:26.990Z,17.40
2022-11-01T05:36:29.664Z,17.00
2022-11-01T05:41:31.964Z,17.00
2022-11-01T05:46:34.256Z,17.10
2022-11-01T05:51:38.077Z,17.10
2022-11-01T05:56:40.375Z,17.00
2022-11-01T06:01:42.698Z,17.10
2022-11-01T06:06:45.021Z,16.90
2022-11-01T06:11:47.283Z,16.80
2022-11-01T06:16:49.578Z,16.90
2022-11-01T06:21:51.985Z,16.80
2022-11-01T06:26:54.379Z,16.70
2022-11-01T06:31:56.779Z,16.80
2022-11-01T06:36:59.096Z,16.80
2022-11-01T06:42:01.356Z,16.60
2022-11-01T06:47:03.756Z,16.50
2022-11-01T06:52:06.787Z,16.10
2022-11-01T06:57:09.074Z,15.90
2022-11-01T07:02:14.558Z,15.50
2022-11-01T07:07:17.489Z,15.40
2022-11-01T07:12:19.737Z,15.40
2022-11-01T07:17:22.032Z,15.40
2022-11-01T07:22:24.491Z,15.10
2022-11-01T07:27:26.798Z,15.00
2022-11-01T07:32:29.540Z,15.10
2022-11-01T07:37:31.928Z,15.00
2022-11-01T07:42:40.296Z,14.90
2022-11-01T07:47:42.626Z,15.20
2022-11-01T07:52:45.594Z,15.20
2022-11-01T07:57:47.876Z,15.30
2022-11-01T08:02:50.274Z,15.10
2022-11-01T08:07:52.620Z,15.00
2022-11-01T08:13:06.670Z,15.00
2022-11-01T08:18:09.024Z,15.10
2022-11-01T08:23:11.660Z,15.00
2022-11-01T08:28:17.193Z,14.90
2022-11-01T08:33:19.499Z,14.70
2022-11-01T08:38:21.766Z,15.00
2022-11-01T08:43:24.034Z,14.90
2022-11-01T08:48:26.301Z,15.10
2022-11-01T08:53:28.553Z,14.80
2022-11-01T08:58:30.800Z,14.10
2022-11-01T09:03:33.164Z,15.00
2022-11-01T09:08:35.471Z,15.10
2022-11-01T09:13:37.771Z,15.20
2022-11-01T09:18:40.051Z,15.20
2022-11-01T09:23:42.479Z,15.20
2022-11-01T09:28:44.736Z,15.30
2022-11-01T09:33:47.178Z,15.50
2022-11-01T09:38:49.425Z,15.60
2022-11-01T09:43:53.672Z,15.70
2022-11-01T09:48:58.417Z,15.80
2022-11-01T09:54:04.271Z,15.70
2022-11-01T09:59:12.709Z,15.90
2022-11-01T10:04:33.831Z,15.90
2022-11-01T10:09:55.710Z,15.90
2022-11-01T10:15:33.845Z,16.00
2022-11-01T10:20:38.967Z,16.10
2022-11-01T10:25:48.739Z,16.20
2022-11-01T10:30:55.631Z,16.30
2022-11-01T10:36:05.248Z,16.40
2022-11-01T10:41:32.029Z,16.60
2022-11-01T10:46:39.720Z,16.70
2022-11-01T10:51:43.237Z,16.80
2022-11-01T10:56:50.207Z,16.80
2022-11-01T11:01:54.876Z,16.80
2022-11-01T11:06:57.734Z,16.90
2022-11-01T11:12:21.354Z,17.20
2022-11-01T11:17:43.404Z,17.20
2022-11-01T11:22:45.875Z,17.20
2022-11-01T11:27:56.445Z,17.20
2022-11-01T11:33:01.814Z,17.20
2022-11-01T11:38:06.661Z,17.30
2022-11-01T11:43:44.824Z,17.30
2022-11-01T11:48:56.594Z,17.50
2022-11-01T11:54:25.584Z,17.50
2022-11-01T11:59:32.176Z,17.40
2022-11-01T12:04:41.540Z,17.70
2022-11-01T12:09:48.382Z,17.40
2022-11-01T12:14:51.326Z,17.60
2022-11-01T12:20:21.812Z,17.70
2022-11-01T12:25:25.045Z,17.70
2022-11-01T12:30:30.962Z,17.70
2022-11-01T12:35:42.143Z,17.70
2022-11-01T12:40:48.595Z,17.80
2022-11-01T12:45:53.922Z,18.10
2022-11-01T12:50:58.879Z,18.30
2022-11-01T12:56:01.248Z,18.20
2022-11-01T13:01:39.999Z,18.30
2022-11-01T13:07:16.281Z,18.00
2022-11-01T13:12:27.792Z,18.20
2022-11-01T13:17:35.654Z,18.20
2022-11-01T13:22:47.522Z,18.20
2022-11-01T13:28:01.416Z,18.20
2022-11-01T13:33:21.164Z,18.00
2022-11-01T13:38:36.605Z,17.70
2022-11-01T13:43:47.465Z,17.80
2022-11-01T13:49:15.608Z,17.90
2022-11-01T13:54:29.426Z,17.70
2022-11-01T13:59:55.114Z,17.60
2022-11-01T14:05:09.804Z,17.70
2022-11-01T14:10:18.968Z,18.00
2022-11-01T14:15:24.644Z,17.90
2022-11-01T14:20:31.470Z,17.80
2022-11-01T14:25:34.026Z,17.90
2022-11-01T14:30:42.155Z,14.80
2022-11-01T14:35:54.045Z,17.80
2022-11-01T14:41:00.586Z,17.40
2022-11-01T14:46:19.584Z,17.20
2022-11-01T14:51:46.541Z,17.10
2022-11-01T14:56:52.052Z,17.20
2022-11-01T15:02:02.424Z,17.00
2022-11-01T15:07:30.867Z,17.20
2022-11-01T15:12:36.862Z,17.20
2022-11-01T15:17:40.478Z,17.10
2022-11-01T15:22:42.773Z,17.00
2022-11-01T15:27:46.422Z,17.00
2022-11-01T15:33:12.259Z,17.00
2022-11-01T15:38:20.894Z,16.80
2022-11-01T15:43:27.106Z,16.80
2022-11-01T15:48:33.308Z,16.80
2022-11-01T15:53:38.462Z,16.70
2022-11-01T15:58:51.124Z,16.90
2022-11-01T16:04:01.370Z,16.50
2022-11-01T16:09:16.170Z,16.40
2022-11-01T16:14:25.206Z,16.30
2022-11-01T16:19:51.304Z,16.30
2022-11-01T16:25:16.965Z,16.20
2022-11-01T16:30:52.819Z,16.20
2022-11-01T16:35:58.055Z,16.00
2022-11-01T16:41:04.408Z,16.00
2022-11-01T16:46:06.872Z,16.20
2022-11-01T16:51:09.452Z,16.30
2022-11-01T17:01:44.935Z,16.10
2022-11-01T17:06:47.874Z,16.20
2022-11-01T17:11:51.823Z,16.10
2022-11-01T17:16:56.174Z,16.00
2022-11-01T17:22:02.853Z,16.00
2022-11-01T17:27:05.991Z,15.80
2022-11-01T17:32:09.570Z,15.80
2022-11-01T17:37:17.173Z,15.80
2022-11-01T17:47:22.370Z,16.00
2022-11-01T17:52:24.775Z,15.80
2022-11-01T17:57:27.329Z,15.80
2022-11-01T18:02:29.769Z,15.60
2022-11-01T18:07:39.284Z,15.60
2022-11-01T18:13:00.827Z,15.40
2022-11-01T18:18:24.569Z,15.40
2022-11-01T18:23:27.766Z,15.30
2022-11-01T18:28:32.375Z,15.30
2022-11-01T18:33:40.510Z,15.30
2022-11-01T18:39:21.778Z,15.20
2022-11-01T18:49:28.178Z,15.20
2022-11-01T18:54:32.923Z,15.00
2022-11-01T18:59:39.213Z,14.90
2022-11-01T19:04:42.898Z,15.10
2022-11-01T19:09:54.231Z,15.10
2022-11-01T19:15:03.307Z,15.20
2022-11-01T19:20:44.978Z,15.20
2022-11-01T19:25:48.564Z,15.10
2022-11-01T19:30:54.324Z,15.10
2022-11-01T19:35:57.937Z,14.90
2022-11-01T19:41:00.655Z,14.90
2022-11-01T19:46:03.155Z,14.90
2022-11-01T19:51:33.128Z,14.90
2022-11-01T19:56:35.658Z,14.90
2022-11-01T20:01:46.343Z,14.90
2022-11-01T20:06:53.795Z,15.70
2022-11-01T20:11:57.451Z,14.70
2022-11-01T20:17:04.407Z,14.80
2022-11-01T20:22:07.133Z,14.60
2022-11-01T20:27:09.492Z,14.50
2022-11-01T20:32:11.816Z,14.70
2022-11-01T20:37:28.244Z,14.60
2022-11-01T20:42:31.403Z,14.50
2022-11-01T20:47:33.722Z,14.50
2022-11-01T20:52:40.423Z,14.40
2022-11-01T20:57:43.420Z,14.60
2022-11-01T21:02:47.140Z,14.50
2022-11-01T21:07:52.752Z,14.60
2022-11-01T21:12:55.355Z,14.50
2022-11-01T21:18:09.796Z,14.50
2022-11-01T21:23:21.319Z,14.50
2022-11-01T21:28:36.407Z,14.50
2022-11-01T21:33:42.005Z,14.40
2022-11-01T21:38:54.149Z,14.40
2022-11-01T21:43:56.592Z,13.70
2022-11-01T21:48:59.826Z,14.40
2022-11-01T21:54:04.463Z,14.40
2022-11-01T21:59:07.401Z,14.40
2022-11-01T22:04:09.697Z,14.50
2022-11-01T22:09:12.125Z,14.70
2022-11-01T22:14:14.604Z,14.50
2022-11-01T22:19:17.395Z,14.50
2022-11-01T22:24:20.101Z,14.50
2022-11-01T22:29:22.528Z,14.50
2022-11-01T22:34:24.834Z,14.50
2022-11-01T22:39:29.724Z,14.70
2022-11-01T22:44:32.576Z,14.50
2022-11-01T22:49:37.602Z,14.40
2022-11-01T22:54:52.196Z,14.40
2022-11-01T23:00:20.817Z,14.80
2022-11-01T23:05:24.647Z,14.70
2022-11-01T23:10:34.848Z,14.60
2022-11-01T23:15:37.362Z,14.40
2022-11-01T23:20:42.582Z,14.50
2022-11-01T23:25:45.246Z,14.60
2022-11-01T23:30:48.905Z,14.60
2022-11-01T23:35:57.010Z,14.60
2022-11-01T23:40:59.531Z,14.60
2022-11-01T23:46:02.412Z,14.70
2022-11-01T23:51:05.806Z,14.70
2022-11-01T23:56:09.327Z,14.50
